KBDR/BDR METAR and TAF weather

Enter ICAO airport designator
Station Type Date Time Source
KBDR METAR 2018/07/21 12:52 UTC NOAA

KBDR 211252Z 10013KT 10SM CLR 22/13 A3012 RMK AO2 SLP199 T02220133


Station Type Date Time Source
KBDR Decoded METAR 2018/07/21 12:52 UTC NOAA

SIKORSKY MEMORIAL AIRPORT, CT, United States (KBDR) 41-10N 073-08W 7M
Jul 21, 2018 - 08:52 AM EDT / 2018.07.21 1252 UTC
Wind: from the E (100 degrees) at 15 MPH (13 KT):0
Visibility: 10 mile(s):0
Sky conditions: clear
Temperature: 72.0 F (22.2 C)
Dew Point: 55.9 F (13.3 C)
Relative Humidity: 57%
Pressure (altimeter): 30.12 in. Hg (1019 hPa)
ob: KBDR 211252Z 10013KT 10SM CLR 22/13 A3012 RMK AO2 SLP199 T02220133
cycle: 13

Station Type Date Time Source
KBDR TAF 2018/07/21 13:28 UTC NOAA

TAF
AMD KBDR 211326Z 2113/2212 11012KT P6SM SCT035 SCT250
FM211900 09015KT P6SM SCT035 SCT250
FM212200 10016G23KT P6SM VCSH BKN035
FM220200 08018G26KT 5SM -SHRA BR OVC020
FM220400 07021G32KT 2SM SHRA BR OVC007 WS020/13050KT
FM221000 15014G23KT 5SM -SHRA BR BKN010


Example: see airport list